sensor_id;sensor_type;location;lat;lon;timestamp;pressure;altitude;pressure_sealevel;temperature;humidity
21781;BME280;52576;53.614;9.894;2023-08-06T00:01:43;100571.34;;;15.41;84.58
21781;BME280;52576;53.614;9.894;2023-08-06T00:03:46;100563.56;;;15.39;84.55
21781;BME280;52576;53.614;9.894;2023-08-06T00:05:49;100557.44;;;15.39;84.96
21781;BME280;52576;53.614;9.894;2023-08-06T00:07:53;100553.53;;;15.33;85.04
21781;BME280;52576;53.614;9.894;2023-08-06T00:09:56;100545.09;;;15.30;85.59
21781;BME280;52576;53.614;9.894;2023-08-06T00:11:59;100548.97;;;15.25;85.54
21781;BME280;52576;53.614;9.894;2023-08-06T00:14:04;100550.22;;;15.21;86.15
21781;BME280;52576;53.614;9.894;2023-08-06T00:16:10;100540.63;;;15.20;86.75
21781;BME280;52576;53.614;9.894;2023-08-06T00:18:14;100535.63;;;15.17;86.77
21781;BME280;52576;53.614;9.894;2023-08-06T00:20:17;100539.09;;;15.18;87.10
21781;BME280;52576;53.614;9.894;2023-08-06T00:22:20;100538.25;;;15.17;87.16
21781;BME280;52576;53.614;9.894;2023-08-06T00:24:22;100539.22;;;15.16;87.64
21781;BME280;52576;53.614;9.894;2023-08-06T00:26:25;100541.03;;;15.16;87.73
21781;BME280;52576;53.614;9.894;2023-08-06T00:28:28;100538.53;;;15.14;87.56
21781;BME280;52576;53.614;9.894;2023-08-06T00:30:33;100529.91;;;15.12;87.67
21781;BME280;52576;53.614;9.894;2023-08-06T00:32:36;100528.50;;;15.08;87.59
21781;BME280;52576;53.614;9.894;2023-08-06T00:34:39;100534.94;;;15.06;87.80
21781;BME280;52576;53.614;9.894;2023-08-06T00:36:42;100527.16;;;15.04;87.77
21781;BME280;52576;53.614;9.894;2023-08-06T00:38:46;100527.41;;;15.01;87.79
21781;BME280;52576;53.614;9.894;2023-08-06T00:40:49;100524.78;;;15.01;87.92
21781;BME280;52576;53.614;9.894;2023-08-06T00:42:53;100525.75;;;15.00;88.46
21781;BME280;52576;53.614;9.894;2023-08-06T00:44:56;100526.59;;;15.01;88.58
21781;BME280;52576;53.614;9.894;2023-08-06T00:47:01;100522.41;;;14.98;88.59
21781;BME280;52576;53.614;9.894;2023-08-06T00:49:04;100529.63;;;14.96;88.49
21781;BME280;52576;53.614;9.894;2023-08-06T00:51:08;100526.28;;;14.94;88.67
21781;BME280;52576;53.614;9.894;2023-08-06T00:53:12;100514.06;;;14.93;88.98
21781;BME280;52576;53.614;9.894;2023-08-06T00:55:15;100509.88;;;14.90;89.40
21781;BME280;52576;53.614;9.894;2023-08-06T00:57:20;100512.66;;;14.89;89.49
21781;BME280;52576;53.614;9.894;2023-08-06T00:59:25;100505.72;;;14.88;89.93
21781;BME280;52576;53.614;9.894;2023-08-06T01:01:28;100511.00;;;14.88;89.74
21781;BME280;52576;53.614;9.894;2023-08-06T01:03:32;100500.44;;;14.88;90.12
21781;BME280;52576;53.614;9.894;2023-08-06T01:05:36;100503.78;;;14.90;90.76
21781;BME280;52576;53.614;9.894;2023-08-06T01:07:49;100495.72;;;14.91;90.37
21781;BME280;52576;53.614;9.894;2023-08-06T01:10:00;100486.84;;;14.92;90.67
21781;BME280;52576;53.614;9.894;2023-08-06T01:12:18;100484.06;;;14.94;91.06
21781;BME280;52576;53.614;9.894;2023-08-06T01:14:28;100490.03;;;14.96;90.84
21781;BME280;52576;53.614;9.894;2023-08-06T01:16:33;100490.88;;;14.97;91.38
21781;BME280;52576;53.614;9.894;2023-08-06T01:18:38;100493.38;;;14.98;91.26
21781;BME280;52576;53.614;9.894;2023-08-06T01:20:44;100491.44;;;15.00;91.31
21781;BME280;52576;53.614;9.894;2023-08-06T01:22:47;100484.22;;;15.02;91.72
21781;BME280;52576;53.614;9.894;2023-08-06T01:24:51;100479.63;;;15.04;91.24
21781;BME280;52576;53.614;9.894;2023-08-06T01:26:58;100481.31;;;15.05;91.55
21781;BME280;52576;53.614;9.894;2023-08-06T01:29:08;100487.41;;;15.06;91.42
21781;BME280;52576;53.614;9.894;2023-08-06T01:31:16;100475.06;;;15.06;91.32
21781;BME280;52576;53.614;9.894;2023-08-06T01:33:21;100464.63;;;15.05;91.22
21781;BME280;52576;53.614;9.894;2023-08-06T01:35:26;100462.13;;;15.03;91.55
21781;BME280;52576;53.614;9.894;2023-08-06T01:37:34;100465.88;;;15.01;91.03
21781;BME280;52576;53.614;9.894;2023-08-06T01:39:39;100467.69;;;15.00;91.32
21781;BME280;52576;53.614;9.894;2023-08-06T01:41:42;100464.34;;;14.98;91.27
21781;BME280;52576;53.614;9.894;2023-08-06T01:43:45;100467.97;;;14.97;91.54
21781;BME280;52576;53.614;9.894;2023-08-06T01:45:49;100461.00;;;14.96;91.55
21781;BME280;52576;53.614;9.894;2023-08-06T01:47:52;100456.84;;;14.93;91.54
21781;BME280;52576;53.614;9.894;2023-08-06T01:49:55;100458.78;;;14.91;91.45
21781;BME280;52576;53.614;9.894;2023-08-06T01:51:58;100459.88;;;14.89;91.41
21781;BME280;52576;53.614;9.894;2023-08-06T01:54:03;100456.53;;;14.87;91.69
21781;BME280;52576;53.614;9.894;2023-08-06T01:56:06;100448.06;;;14.83;91.98
21781;BME280;52576;53.614;9.894;2023-08-06T01:58:10;100448.19;;;14.82;91.74
21781;BME280;52576;53.614;9.894;2023-08-06T02:00:13;100442.09;;;14.81;91.86
21781;BME280;52576;53.614;9.894;2023-08-06T02:02:16;100437.94;;;14.79;92.00
21781;BME280;52576;53.614;9.894;2023-08-06T02:04:20;100436.28;;;14.78;92.31
21781;BME280;52576;53.614;9.894;2023-08-06T02:06:24;100432.69;;;14.79;92.52
21781;BME280;52576;53.614;9.894;2023-08-06T02:08:27;100432.69;;;14.79;92.53
21781;BME280;52576;53.614;9.894;2023-08-06T02:10:32;100438.78;;;14.79;92.48
21781;BME280;52576;53.614;9.894;2023-08-06T02:12:35;100441.56;;;14.78;92.66
21781;BME280;52576;53.614;9.894;2023-08-06T02:14:38;100438.22;;;14.76;92.22
21781;BME280;52576;53.614;9.894;2023-08-06T02:16:41;100445.44;;;14.74;92.74
21781;BME280;52576;53.614;9.894;2023-08-06T02:18:44;100441.69;;;14.76;92.89
21781;BME280;52576;53.614;9.894;2023-08-06T02:20:59;100436.28;;;14.78;93.30
21781;BME280;52576;53.614;9.894;2023-08-06T02:23:03;100437.66;;;14.82;93.24
21781;BME280;52576;53.614;9.894;2023-08-06T02:25:05;100434.03;;;14.83;93.44
21781;BME280;52576;53.614;9.894;2023-08-06T02:27:11;100436.00;;;14.81;92.86
21781;BME280;52576;53.614;9.894;2023-08-06T02:29:14;100436.81;;;14.81;93.22
21781;BME280;52576;53.614;9.894;2023-08-06T02:31:18;100421.81;;;14.82;93.39
21781;BME280;52576;53.614;9.894;2023-08-06T02:33:21;100425.16;;;14.84;93.59
21781;BME280;52576;53.614;9.894;2023-08-06T02:35:24;100425.03;;;14.85;93.34
21781;BME280;52576;53.614;9.894;2023-08-06T02:37:27;100422.38;;;14.85;93.51
21781;BME280;52576;53.614;9.894;2023-08-06T02:39:30;100423.22;;;14.86;93.60
21781;BME280;52576;53.614;9.894;2023-08-06T02:41:33;100415.44;;;14.84;93.15
21781;BME280;52576;53.614;9.894;2023-08-06T02:43:38;100412.94;;;14.83;92.95
21781;BME280;52576;53.614;9.894;2023-08-06T02:45:41;100407.97;;;14.80;93.00
21781;BME280;52576;53.614;9.894;2023-08-06T02:47:45;100411.56;;;14.79;93.44
21781;BME280;52576;53.614;9.894;2023-08-06T02:49:48;100408.22;;;14.77;93.46
21781;BME280;52576;53.614;9.894;2023-08-06T02:51:51;100401.28;;;14.76;93.36
21781;BME280;52576;53.614;9.894;2023-08-06T02:53:55;100400.47;;;14.75;93.42
21781;BME280;52576;53.614;9.894;2023-08-06T02:55:58;100395.19;;;14.75;93.48
21781;BME280;52576;53.614;9.894;2023-08-06T02:58:10;100396.00;;;14.76;93.70
21781;BME280;52576;53.614;9.894;2023-08-06T03:00:19;100389.91;;;14.75;93.49
21781;BME280;52576;53.614;9.894;2023-08-06T03:02:22;100390.03;;;14.74;93.39
21781;BME280;52576;53.614;9.894;2023-08-06T03:04:47;100384.06;;;14.72;93.76
21781;BME280;52576;53.614;9.894;2023-08-06T03:06:53;100385.72;;;14.73;93.89
21781;BME280;52576;53.614;9.894;2023-08-06T03:08:59;100390.19;;;14.72;93.76
21781;BME280;52576;53.614;9.894;2023-08-06T03:11:02;100396.28;;;14.73;93.93
21781;BME280;52576;53.614;9.894;2023-08-06T03:13:06;100384.91;;;14.72;93.90
21781;BME280;52576;53.614;9.894;2023-08-06T03:15:09;100385.59;;;14.74;93.91
21781;BME280;52576;53.614;9.894;2023-08-06T03:17:13;100391.72;;;14.75;93.88
21781;BME280;52576;53.614;9.894;2023-08-06T03:19:17;100389.06;;;14.75;93.99
21781;BME280;52576;53.614;9.894;2023-08-06T03:21:20;100387.25;;;14.75;94.14
21781;BME280;52576;53.614;9.894;2023-08-06T03:23:23;100384.63;;;14.75;94.09
21781;BME280;52576;53.614;9.894;2023-08-06T03:25:27;100385.47;;;14.76;93.96
21781;BME280;52576;53.614;9.894;2023-08-06T03:27:31;100387.13;;;14.77;94.26
21781;BME280;52576;53.614;9.894;2023-08-06T03:29:35;100390.75;;;14.76;94.14
21781;BME280;52576;53.614;9.894;2023-08-06T03:31:38;100385.47;;;14.76;94.15
21781;BME280;52576;53.614;9.894;2023-08-06T03:33:43;100380.31;;;14.74;94.34
21781;BME280;52576;53.614;9.894;2023-08-06T03:35:50;100373.25;;;14.75;93.99
21781;BME280;52576;53.614;9.894;2023-08-06T03:37:53;100375.88;;;14.75;94.21
21781;BME280;52576;53.614;9.894;2023-08-06T03:39:56;100366.28;;;14.74;94.10
21781;BME280;52576;53.614;9.894;2023-08-06T03:42:00;100366.56;;;14.71;94.27
21781;BME280;52576;53.614;9.894;2023-08-06T03:44:03;100370.19;;;14.70;94.03
21781;BME280;52576;53.614;9.894;2023-08-06T03:46:06;100370.44;;;14.67;94.01
21781;BME280;52576;53.614;9.894;2023-08-06T03:48:09;100368.78;;;14.66;94.39
21781;BME280;52576;53.614;9.894;2023-08-06T03:50:14;100374.06;;;14.66;94.18
21781;BME280;52576;53.614;9.894;2023-08-06T03:52:18;100371.41;;;14.66;94.40
21781;BME280;52576;53.614;9.894;2023-08-06T03:54:22;100365.31;;;14.65;94.30
21781;BME280;52576;53.614;9.894;2023-08-06T03:56:25;100368.78;;;14.66;94.60
21781;BME280;52576;53.614;9.894;2023-08-06T03:58:28;100365.31;;;14.65;94.22
21781;BME280;52576;53.614;9.894;2023-08-06T04:00:31;100373.34;;;14.64;94.22
21781;BME280;52576;53.614;9.894;2023-08-06T04:02:34;100357.69;;;14.62;94.26
21781;BME280;52576;53.614;9.894;2023-08-06T04:04:37;100356.84;;;14.62;94.32
21781;BME280;52576;53.614;9.894;2023-08-06T04:06:42;100347.25;;;14.60;94.19
21781;BME280;52576;53.614;9.894;2023-08-06T04:08:44;100358.78;;;14.59;94.31
21781;BME280;52576;53.614;9.894;2023-08-06T04:10:49;100354.47;;;14.58;94.42
21781;BME280;52576;53.614;9.894;2023-08-06T04:12:52;100348.38;;;14.58;94.41
21781;BME280;52576;53.614;9.894;2023-08-06T04:14:58;100356.28;;;14.58;94.39
21781;BME280;52576;53.614;9.894;2023-08-06T04:17:04;100357.25;;;14.57;94.46
21781;BME280;52576;53.614;9.894;2023-08-06T04:19:07;100352.09;;;14.55;94.39
21781;BME280;52576;53.614;9.894;2023-08-06T04:21:10;100356.59;;;14.55;94.20
21781;BME280;52576;53.614;9.894;2023-08-06T04:23:16;100355.75;;;14.54;94.26
21781;BME280;52576;53.614;9.894;2023-08-06T04:25:19;100355.88;;;14.53;94.62
21781;BME280;52576;53.614;9.894;2023-08-06T04:27:22;100356.84;;;14.52;94.47
21781;BME280;52576;53.614;9.894;2023-08-06T04:29:26;100349.06;;;14.50;94.66
21781;BME280;52576;53.614;9.894;2023-08-06T04:31:29;100357.97;;;14.49;94.29
21781;BME280;52576;53.614;9.894;2023-08-06T04:33:32;100349.34;;;14.47;94.23
21781;BME280;52576;53.614;9.894;2023-08-06T04:35:41;100359.91;;;14.47;94.65
21781;BME280;52576;53.614;9.894;2023-08-06T04:37:44;100358.22;;;14.46;94.52
21781;BME280;52576;53.614;9.894;2023-08-06T04:39:48;100352.97;;;14.46;94.37
21781;BME280;52576;53.614;9.894;2023-08-06T04:41:53;100363.50;;;14.46;94.41
21781;BME280;52576;53.614;9.894;2023-08-06T04:43:56;100357.53;;;14.44;94.34
21781;BME280;52576;53.614;9.894;2023-08-06T04:45:59;100357.53;;;14.44;94.27
21781;BME280;52576;53.614;9.894;2023-08-06T04:48:03;100360.16;;;14.44;94.29
21781;BME280;52576;53.614;9.894;2023-08-06T04:50:06;100360.16;;;14.44;94.51
21781;BME280;52576;53.614;9.894;2023-08-06T04:52:09;100358.50;;;14.43;94.25
21781;BME280;52576;53.614;9.894;2023-08-06T04:54:12;100362.09;;;14.42;94.44
21781;BME280;52576;53.614;9.894;2023-08-06T04:56:17;100359.47;;;14.42;94.61
21781;BME280;52576;53.614;9.894;2023-08-06T04:58:20;100367.38;;;14.42;94.49
21781;BME280;52576;53.614;9.894;2023-08-06T05:00:23;100366.53;;;14.42;94.29
21781;BME280;52576;53.614;9.894;2023-08-06T05:02:26;100368.22;;;14.43;94.24
21781;BME280;52576;53.614;9.894;2023-08-06T05:04:29;100358.50;;;14.43;94.20
21781;BME280;52576;53.614;9.894;2023-08-06T05:06:32;100369.03;;;14.43;94.42
21781;BME280;52576;53.614;9.894;2023-08-06T05:08:35;100358.50;;;14.43;94.44
21781;BME280;52576;53.614;9.894;2023-08-06T05:10:42;100371.69;;;14.43;94.22
21781;BME280;52576;53.614;9.894;2023-08-06T05:12:46;100369.03;;;14.43;94.36
21781;BME280;52576;53.614;9.894;2023-08-06T05:14:49;100367.38;;;14.42;93.98
21781;BME280;52576;53.614;9.894;2023-08-06T05:16:51;100363.78;;;14.43;94.01
21781;BME280;52576;53.614;9.894;2023-08-06T05:18:54;100361.13;;;14.43;93.94
21781;BME280;52576;53.614;9.894;2023-08-06T05:20:57;100362.94;;;14.43;94.15
21781;BME280;52576;53.614;9.894;2023-08-06T05:23:00;100360.16;;;14.44;94.19
21781;BME280;52576;53.614;9.894;2023-08-06T05:25:04;100370.72;;;14.44;94.54
21781;BME280;52576;53.614;9.894;2023-08-06T05:27:08;100370.44;;;14.47;94.10
21781;BME280;52576;53.614;9.894;2023-08-06T05:29:12;100374.63;;;14.50;94.27
21781;BME280;52576;53.614;9.894;2023-08-06T05:31:15;100359.50;;;14.52;94.39
21781;BME280;52576;53.614;9.894;2023-08-06T05:33:18;100362.97;;;14.52;94.24
21781;BME280;52576;53.614;9.894;2023-08-06T05:35:21;100362.97;;;14.52;93.95
21781;BME280;52576;53.614;9.894;2023-08-06T05:37:24;100355.06;;;14.52;94.23
21781;BME280;52576;53.614;9.894;2023-08-06T05:39:27;100359.34;;;14.53;94.26
21781;BME280;52576;53.614;9.894;2023-08-06T05:41:30;100362.81;;;14.54;94.33
21781;BME280;52576;53.614;9.894;2023-08-06T05:43:33;100362.66;;;14.55;94.16
21781;BME280;52576;53.614;9.894;2023-08-06T05:45:37;100366.00;;;14.57;94.57
21781;BME280;52576;53.614;9.894;2023-08-06T05:47:40;100362.13;;;14.62;94.54
21781;BME280;52576;53.614;9.894;2023-08-06T05:49:43;100362.66;;;14.65;94.56
21781;BME280;52576;53.614;9.894;2023-08-06T05:51:46;100354.63;;;14.67;94.35
21781;BME280;52576;53.614;9.894;2023-08-06T05:53:50;100351.03;;;14.68;94.11
21781;BME280;52576;53.614;9.894;2023-08-06T05:55:53;100342.13;;;14.69;94.29
21781;BME280;52576;53.614;9.894;2023-08-06T05:57:56;100348.25;;;14.69;94.09
21781;BME280;52576;53.614;9.894;2023-08-06T05:59:59;100338.53;;;14.70;94.39
21781;BME280;52576;53.614;9.894;2023-08-06T06:02:15;100346.31;;;14.71;93.98
21781;BME280;52576;53.614;9.894;2023-08-06T06:04:20;100338.25;;;14.73;94.10
21781;BME280;52576;53.614;9.894;2023-08-06T06:06:23;100347.69;;;14.75;94.22
21781;BME280;52576;53.614;9.894;2023-08-06T06:08:26;100346.59;;;14.78;94.07
21781;BME280;52576;53.614;9.894;2023-08-06T06:10:29;100347.94;;;14.82;94.03
21781;BME280;52576;53.614;9.894;2023-08-06T06:12:32;100360.16;;;14.83;94.44
21781;BME280;52576;53.614;9.894;2023-08-06T06:14:35;100344.06;;;14.86;93.92
21781;BME280;52576;53.614;9.894;2023-08-06T06:16:38;100348.38;;;14.87;94.21
21781;BME280;52576;53.614;9.894;2023-08-06T06:18:42;100350.72;;;14.90;94.14
21781;BME280;52576;53.614;9.894;2023-08-06T06:20:45;100348.09;;;14.90;94.07
21781;BME280;52576;53.614;9.894;2023-08-06T06:22:48;100347.13;;;14.91;93.69
21781;BME280;52576;53.614;9.894;2023-08-06T06:24:51;100345.31;;;14.91;94.00
21781;BME280;52576;53.614;9.894;2023-08-06T06:26:54;100345.16;;;14.93;94.05
21781;BME280;52576;53.614;9.894;2023-08-06T06:28:57;100342.38;;;14.94;93.82
21781;BME280;52576;53.614;9.894;2023-08-06T06:31:00;100339.63;;;14.96;93.81
21781;BME280;52576;53.614;9.894;2023-08-06T06:33:03;100345.59;;;14.98;93.94
21781;BME280;52576;53.614;9.894;2023-08-06T06:35:08;100341.84;;;15.01;93.88
21781;BME280;52576;53.614;9.894;2023-08-06T06:37:11;100344.34;;;15.02;93.72
21781;BME280;52576;53.614;9.894;2023-08-06T06:39:13;100335.44;;;15.03;93.94
21781;BME280;52576;53.614;9.894;2023-08-06T06:41:16;100332.53;;;15.06;93.72
21781;BME280;52576;53.614;9.894;2023-08-06T06:43:19;100333.19;;;15.08;94.11
21781;BME280;52576;53.614;9.894;2023-08-06T06:45:22;100331.25;;;15.10;93.76
21781;BME280;52576;53.614;9.894;2023-08-06T06:47:25;100339.84;;;15.12;93.99
21781;BME280;52576;53.614;9.894;2023-08-06T06:49:28;100343.19;;;15.14;93.76
21781;BME280;52576;53.614;9.894;2023-08-06T06:51:33;100338.47;;;15.18;93.68
21781;BME280;52576;53.614;9.894;2023-08-06T06:53:35;100342.63;;;15.20;93.92
21781;BME280;52576;53.614;9.894;2023-08-06T06:55:38;100332.63;;;15.24;93.83
21781;BME280;52576;53.614;9.894;2023-08-06T06:57:41;100338.44;;;15.27;93.86
21781;BME280;52576;53.614;9.894;2023-08-06T06:59:44;100334.56;;;15.32;93.78
21781;BME280;52576;53.614;9.894;2023-08-06T07:01:47;100343.69;;;15.37;93.20
21781;BME280;52576;53.614;9.894;2023-08-06T07:03:50;100337.28;;;15.40;93.28
21781;BME280;52576;53.614;9.894;2023-08-06T07:05:57;100334.50;;;15.41;93.00
21781;BME280;52576;53.614;9.894;2023-08-06T07:08:01;100338.94;;;15.41;92.73
21781;BME280;52576;53.614;9.894;2023-08-06T07:10:05;100334.34;;;15.43;92.67
21781;BME280;52576;53.614;9.894;2023-08-06T07:12:09;100336.03;;;15.44;93.10
21781;BME280;52576;53.614;9.894;2023-08-06T07:14:12;100329.78;;;15.45;92.68
21781;BME280;52576;53.614;9.894;2023-08-06T07:16:16;100338.38;;;15.47;92.59
21781;BME280;52576;53.614;9.894;2023-08-06T07:18:19;100339.22;;;15.47;92.23
21781;BME280;52576;53.614;9.894;2023-08-06T07:20:22;100336.44;;;15.49;92.50
21781;BME280;52576;53.614;9.894;2023-08-06T07:22:25;100331.84;;;15.51;92.44
21781;BME280;52576;53.614;9.894;2023-08-06T07:24:29;100340.19;;;15.56;92.71
21781;BME280;52576;53.614;9.894;2023-08-06T07:26:32;100340.28;;;15.64;92.53
21781;BME280;52576;53.614;9.894;2023-08-06T07:28:35;100341.38;;;15.71;92.63
21781;BME280;52576;53.614;9.894;2023-08-06T07:30:38;100336.88;;;15.81;92.61
21781;BME280;52576;53.614;9.894;2023-08-06T07:32:40;100334.03;;;15.92;92.41
21781;BME280;52576;53.614;9.894;2023-08-06T07:34:44;100329.53;;;16.03;92.22
21781;BME280;52576;53.614;9.894;2023-08-06T07:36:47;100338.06;;;16.14;92.07
21781;BME280;52576;53.614;9.894;2023-08-06T07:38:50;100338.72;;;16.26;91.79
21781;BME280;52576;53.614;9.894;2023-08-06T07:41:01;100340.13;;;16.38;91.23
21781;BME280;52576;53.614;9.894;2023-08-06T07:43:04;100337.00;;;16.52;91.03
21781;BME280;52576;53.614;9.894;2023-08-06T07:45:09;100345.25;;;16.67;90.70
21781;BME280;52576;53.614;9.894;2023-08-06T07:47:12;100346.53;;;16.81;89.92
21781;BME280;52576;53.614;9.894;2023-08-06T07:49:15;100339.16;;;16.92;89.18
21781;BME280;52576;53.614;9.894;2023-08-06T07:51:18;100344.69;;;16.99;88.49
21781;BME280;52576;53.614;9.894;2023-08-06T07:53:21;100349.69;;;17.02;87.73
21781;BME280;52576;53.614;9.894;2023-08-06T07:55:25;100344.91;;;17.06;87.09
21781;BME280;52576;53.614;9.894;2023-08-06T07:57:30;100349.75;;;17.10;87.07
21781;BME280;52576;53.614;9.894;2023-08-06T07:59:33;100348.13;;;17.17;86.24
21781;BME280;52576;53.614;9.894;2023-08-06T08:01:36;100339.72;;;17.22;86.08
21781;BME280;52576;53.614;9.894;2023-08-06T08:03:39;100336.59;;;17.26;85.83
21781;BME280;52576;53.614;9.894;2023-08-06T08:05:43;100337.28;;;17.28;85.52
21781;BME280;52576;53.614;9.894;2023-08-06T08:07:46;100335.31;;;17.30;85.04
21781;BME280;52576;53.614;9.894;2023-08-06T08:09:49;100339.78;;;17.30;84.14
21781;BME280;52576;53.614;9.894;2023-08-06T08:11:52;100332.66;;;17.30;83.88
21781;BME280;52576;53.614;9.894;2023-08-06T08:13:56;100334.31;;;17.32;83.63
21781;BME280;52576;53.614;9.894;2023-08-06T08:16:01;100333.34;;;17.33;84.21
21781;BME280;52576;53.614;9.894;2023-08-06T08:18:04;100332.19;;;17.35;84.55
21781;BME280;52576;53.614;9.894;2023-08-06T08:20:08;100337.03;;;17.40;84.63
21781;BME280;52576;53.614;9.894;2023-08-06T08:22:11;100332.22;;;17.43;84.08
21781;BME280;52576;53.614;9.894;2023-08-06T08:24:13;100332.75;;;17.47;84.02
21781;BME280;52576;53.614;9.894;2023-08-06T08:26:16;100330.44;;;17.52;84.17
21781;BME280;52576;53.614;9.894;2023-08-06T08:28:19;100331.81;;;17.56;83.53
21781;BME280;52576;53.614;9.894;2023-08-06T08:30:23;100328.53;;;17.62;83.85
21781;BME280;52576;53.614;9.894;2023-08-06T08:32:27;100330.91;;;17.65;83.50
21781;BME280;52576;53.614;9.894;2023-08-06T08:34:30;100329.72;;;17.68;83.52
21781;BME280;52576;53.614;9.894;2023-08-06T08:36:33;100334.72;;;17.71;83.45
21781;BME280;52576;53.614;9.894;2023-08-06T08:38:35;100324.63;;;17.74;83.40
21781;BME280;52576;53.614;9.894;2023-08-06T08:40:43;100318.03;;;17.78;83.07
21781;BME280;52576;53.614;9.894;2023-08-06T08:42:48;100314.06;;;17.82;82.67
21781;BME280;52576;53.614;9.894;2023-08-06T08:44:52;100318.06;;;17.86;82.24
21781;BME280;52576;53.614;9.894;2023-08-06T08:46:58;100316.91;;;17.89;82.30
21781;BME280;52576;53.614;9.894;2023-08-06T08:49:02;100321.06;;;17.91;82.38
21781;BME280;52576;53.614;9.894;2023-08-06T08:51:06;100328.03;;;17.92;81.99
21781;BME280;52576;53.614;9.894;2023-08-06T08:53:10;100325.38;;;17.92;81.70
21781;BME280;52576;53.614;9.894;2023-08-06T08:55:14;100324.34;;;17.93;81.51
21781;BME280;52576;53.614;9.894;2023-08-06T08:57:18;100319.72;;;17.95;80.95
21781;BME280;52576;53.614;9.894;2023-08-06T08:59:21;100324.03;;;17.96;80.66
21781;BME280;52576;53.614;9.894;2023-08-06T09:01:24;100311.44;;;17.98;80.53
21781;BME280;52576;53.614;9.894;2023-08-06T09:03:29;100311.13;;;18.02;80.01
21781;BME280;52576;53.614;9.894;2023-08-06T09:05:34;100311.97;;;18.02;79.75
21781;BME280;52576;53.614;9.894;2023-08-06T09:07:42;100317.28;;;18.02;79.89
21781;BME280;52576;53.614;9.894;2023-08-06T09:09:48;100312.13;;;18.01;79.59
21781;BME280;52576;53.614;9.894;2023-08-06T09:11:52;100307.97;;;17.98;79.93
21781;BME280;52576;53.614;9.894;2023-08-06T09:13:57;100315.09;;;17.97;80.38
21781;BME280;52576;53.614;9.894;2023-08-06T09:16:01;100306.97;;;17.99;79.97
21781;BME280;52576;53.614;9.894;2023-08-06T09:18:09;100316.91;;;17.97;79.68
21781;BME280;52576;53.614;9.894;2023-08-06T09:20:15;100320.41;;;17.97;80.09
21781;BME280;52576;53.614;9.894;2023-08-06T09:22:18;100320.41;;;17.97;79.60
21781;BME280;52576;53.614;9.894;2023-08-06T09:24:21;100318.75;;;17.96;79.67
21781;BME280;52576;53.614;9.894;2023-08-06T09:26:24;100326.03;;;17.94;79.63
21781;BME280;52576;53.614;9.894;2023-08-06T09:28:38;100322.72;;;17.92;79.12
21781;BME280;52576;53.614;9.894;2023-08-06T09:30:47;100330.31;;;17.87;79.69
21781;BME280;52576;53.614;9.894;2023-08-06T09:32:49;100316.72;;;17.82;79.49
21781;BME280;52576;53.614;9.894;2023-08-06T09:34:56;100317.34;;;17.76;80.04
21781;BME280;52576;53.614;9.894;2023-08-06T09:37:00;100320.97;;;17.75;80.75
21781;BME280;52576;53.614;9.894;2023-08-06T09:39:12;100316.66;;;17.74;81.30
21781;BME280;52576;53.614;9.894;2023-08-06T09:41:26;100321.66;;;17.77;80.80
21781;BME280;52576;53.614;9.894;2023-08-06T09:43:30;100326.97;;;17.77;81.20
21781;BME280;52576;53.614;9.894;2023-08-06T09:45:34;100331.28;;;17.78;80.82
21781;BME280;52576;53.614;9.894;2023-08-06T09:47:37;100325.97;;;17.78;80.87
21781;BME280;52576;53.614;9.894;2023-08-06T09:49:41;100319.00;;;17.77;80.67
21781;BME280;52576;53.614;9.894;2023-08-06T09:51:47;100324.31;;;17.77;80.17
21781;BME280;52576;53.614;9.894;2023-08-06T09:53:55;100329.94;;;17.74;80.01
21781;BME280;52576;53.614;9.894;2023-08-06T09:55:58;100331.91;;;17.72;79.77
21781;BME280;52576;53.614;9.894;2023-08-06T09:58:02;100332.22;;;17.69;79.82
21781;BME280;52576;53.614;9.894;2023-08-06T10:00:06;100328.91;;;17.67;79.07
21781;BME280;52576;53.614;9.894;2023-08-06T10:02:17;100328.38;;;17.63;78.84
21781;BME280;52576;53.614;9.894;2023-08-06T10:04:23;100323.53;;;17.59;79.52
21781;BME280;52576;53.614;9.894;2023-08-06T10:06:36;100328.16;;;17.57;79.75
21781;BME280;52576;53.614;9.894;2023-08-06T10:08:39;100328.16;;;17.57;80.41
21781;BME280;52576;53.614;9.894;2023-08-06T10:10:45;100324.53;;;17.58;80.22
21781;BME280;52576;53.614;9.894;2023-08-06T10:12:50;100324.22;;;17.61;80.12
21781;BME280;52576;53.614;9.894;2023-08-06T10:14:55;100318.59;;;17.64;80.28
21781;BME280;52576;53.614;9.894;2023-08-06T10:17:00;100318.28;;;17.67;80.19
21781;BME280;52576;53.614;9.894;2023-08-06T10:19:04;100327.44;;;17.73;80.25
21781;BME280;52576;53.614;9.894;2023-08-06T10:21:08;100310.38;;;17.75;80.49
21781;BME280;52576;53.614;9.894;2023-08-06T10:23:11;100315.06;;;17.81;80.36
21781;BME280;52576;53.614;9.894;2023-08-06T10:25:17;100310.63;;;17.90;79.53
21781;BME280;52576;53.614;9.894;2023-08-06T10:27:29;100308.44;;;17.93;79.04
21781;BME280;52576;53.614;9.894;2023-08-06T10:29:36;100307.31;;;17.96;78.74
21781;BME280;52576;53.614;9.894;2023-08-06T10:31:53;100306.00;;;18.00;79.32
21781;BME280;52576;53.614;9.894;2023-08-06T10:33:57;100304.53;;;18.06;78.93
21781;BME280;52576;53.614;9.894;2023-08-06T10:36:01;100310.19;;;18.11;78.93
21781;BME280;52576;53.614;9.894;2023-08-06T10:38:08;100304.72;;;18.12;78.58
21781;BME280;52576;53.614;9.894;2023-08-06T10:40:20;100298.91;;;18.17;78.54
21781;BME280;52576;53.614;9.894;2023-08-06T10:42:27;100298.25;;;18.23;78.43
21781;BME280;52576;53.614;9.894;2023-08-06T10:44:31;100301.25;;;18.28;78.44
21781;BME280;52576;53.614;9.894;2023-08-06T10:46:34;100298.44;;;18.29;78.08
21781;BME280;52576;53.614;9.894;2023-08-06T10:48:39;100296.59;;;18.30;77.90
21781;BME280;52576;53.614;9.894;2023-08-06T10:50:42;100298.44;;;18.29;77.65